createdAt,value
2023-01-05T02:32:23.235Z,11.1
2023-01-05T03:46:37.675Z,11.1
2023-01-05T04:31:28.126Z,11.1
2023-01-05T11:16:11.596Z,10.3
2023-01-05T11:17:32.852Z,10.3
2023-01-05T11:18:10.700Z,10.3
2023-01-05T11:19:29.326Z,10.3
2023-01-05T11:20:11.413Z,10.3
2023-01-05T11:21:29.907Z,10.3
2023-01-05T11:22:10.943Z,10.4
2023-01-05T11:23:18.175Z,10.5
2023-01-05T11:24:18.633Z,10.5
2023-01-05T11:25:42.146Z,10.4
2023-01-05T11:26:22.669Z,10.5
2023-01-05T11:27:42.259Z,10.5
2023-01-05T11:28:11.346Z,10.6
2023-01-05T11:29:24.740Z,10.5
2023-01-05T11:30:11.431Z,10.6
2023-01-05T11:31:11.499Z,10.6
2023-01-05T11:32:15.668Z,10.6
2023-01-05T11:33:15.331Z,10.6
2023-01-05T11:34:27.585Z,10.6
2023-01-05T11:35:34.019Z,10.6
2023-01-05T11:36:14.899Z,10.7
2023-01-05T11:37:11.834Z,10.7
2023-01-05T11:38:22.628Z,10.8
2023-01-05T11:39:19.406Z,10.8
2023-01-05T11:40:19.505Z,10.9
2023-01-05T11:41:12.080Z,11
2023-01-05T11:42:54.779Z,11.1
2023-01-05T11:43:12.159Z,11.1
2023-01-05T11:44:26.685Z,11.1
2023-01-05T11:45:51.156Z,11
2023-01-05T11:46:40.330Z,11
2023-01-05T11:47:12.611Z,10.9
2023-01-05T11:48:35.708Z,10.9
2023-01-05T11:49:16.971Z,11
2023-01-05T11:51:05.297Z,11
2023-01-05T11:52:40.097Z,11
2023-01-05T11:52:40.634Z,11.1
2023-01-05T11:53:51.615Z,11.3
2023-01-05T11:54:12.646Z,11.3
2023-01-05T11:55:12.683Z,11.3
2023-01-05T11:56:12.791Z,11.3
2023-01-05T11:57:12.791Z,11.2
2023-01-05T11:58:12.870Z,11.1
2023-01-05T11:59:12.903Z,11
2023-01-05T12:00:13.073Z,11.1
2023-01-05T12:01:13.068Z,11.1
2023-01-05T12:02:13.119Z,11
2023-01-05T12:03:13.181Z,10.9
2023-01-05T12:04:13.275Z,10.9
2023-01-05T12:05:17.300Z,10.8
2023-01-05T12:06:21.265Z,10.8
2023-01-05T12:07:13.375Z,10.9
2023-01-05T12:08:13.463Z,10.8
2023-01-05T12:09:13.517Z,10.9
2023-01-05T12:10:13.526Z,11.1
2023-01-05T12:11:13.578Z,11
2023-01-05T12:12:13.659Z,11
2023-01-05T12:13:13.706Z,11
2023-01-05T12:14:13.754Z,11
2023-01-05T12:15:13.805Z,10.9
2023-01-05T12:16:13.979Z,10.8
2023-01-05T12:17:13.957Z,10.8
2023-01-05T12:18:13.986Z,10.9
2023-01-05T12:19:14.010Z,10.9
2023-01-05T12:20:14.216Z,10.9
2023-01-05T12:21:14.115Z,10.8
2023-01-05T12:22:14.302Z,10.7
2023-01-05T12:23:14.251Z,10.8
2023-01-05T12:24:14.326Z,10.8
2023-01-05T12:25:17.945Z,10.7
2023-01-05T12:26:14.397Z,10.7
2023-01-05T12:27:14.477Z,10.7
2023-01-05T12:28:23.725Z,10.7
2023-01-05T12:30:24.914Z,10.7
2023-01-05T12:34:14.854Z,10.6
2023-01-05T12:35:15.016Z,10.7
2023-01-05T12:36:15.061Z,10.7
2023-01-05T12:37:15.001Z,10.7
2023-01-05T12:38:15.054Z,10.7
2023-01-05T12:39:15.398Z,10.7
2023-01-05T12:40:15.179Z,10.8
2023-01-05T12:41:15.257Z,10.8
2023-01-05T12:42:15.366Z,10.8
2023-01-05T12:43:15.340Z,10.8
2023-01-05T12:44:15.387Z,11
2023-01-05T12:45:15.427Z,11.5
2023-01-05T12:46:31.913Z,11.9
2023-01-05T12:47:48.588Z,12.1
2023-01-05T12:49:02.541Z,12.2
2023-01-05T12:50:17.884Z,11.9
2023-01-05T12:51:33.319Z,11.7
2023-01-05T12:52:48.540Z,11.5
2023-01-05T12:54:05.737Z,11.6
2023-01-05T12:55:06.955Z,11.9
2023-01-05T12:56:07.341Z,12.1
2023-01-05T12:57:07.071Z,12
2023-01-05T12:58:07.146Z,11.7
2023-01-05T12:59:07.182Z,11.6
2023-01-05T13:00:07.353Z,11.5
2023-01-05T13:01:07.376Z,11.7
2023-01-05T13:02:08.010Z,11.9
2023-01-05T13:03:08.360Z,11.8
2023-01-05T13:04:07.748Z,11.7
2023-01-05T13:05:07.530Z,11.6
2023-01-05T13:06:07.561Z,11.5
2023-01-05T13:07:07.633Z,11.4
2023-01-05T13:08:07.698Z,11.3
2023-01-05T13:09:07.842Z,11.2
2023-01-05T13:10:07.759Z,11.2
2023-01-05T13:11:07.820Z,11.2
2023-01-05T13:12:07.854Z,11.1
2023-01-05T13:13:07.885Z,11.1
2023-01-05T13:14:08.021Z,11.1
2023-01-05T13:15:08.063Z,11
2023-01-05T13:16:08.105Z,11
2023-01-05T13:17:08.128Z,11.1
2023-01-05T13:18:08.203Z,11
2023-01-05T13:19:08.507Z,11
2023-01-05T13:20:08.727Z,10.9
2023-01-05T13:21:14.680Z,10.8
2023-01-05T13:22:08.432Z,10.8
2023-01-05T13:23:08.655Z,10.9
2023-01-05T13:24:08.619Z,10.7
2023-01-05T13:25:08.604Z,10.6
2023-01-05T13:26:08.664Z,10.6
2023-01-05T13:27:08.740Z,10.6
2023-01-05T13:28:08.784Z,10.7
2023-01-05T13:29:08.902Z,10.8
2023-01-05T13:30:09.004Z,10.7
2023-01-05T13:31:09.104Z,10.7
2023-01-05T13:32:09.023Z,10.8
2023-01-05T13:33:09.072Z,10.7
2023-01-05T13:34:09.139Z,10.7
2023-01-05T13:35:09.164Z,10.7
2023-01-05T13:36:09.730Z,10.7
2023-01-05T13:37:09.245Z,10.7
2023-01-05T13:38:09.329Z,10.6
2023-01-05T13:39:09.544Z,10.7
2023-01-05T13:40:09.443Z,10.8
2023-01-05T13:41:09.495Z,10.8
2023-01-05T13:42:09.764Z,10.7
2023-01-05T13:43:09.635Z,10.7
2023-01-05T13:44:13.696Z,10.7
2023-01-05T13:45:09.746Z,10.8
2023-01-05T13:46:09.772Z,10.8
2023-01-05T13:47:10.108Z,10.8
2023-01-05T13:48:13.024Z,10.8
2023-01-05T13:49:09.938Z,10.9
2023-01-05T13:50:10.006Z,10.9
2023-01-05T13:51:10.063Z,10.8
2023-01-05T13:52:10.088Z,10.8
2023-01-05T13:53:10.152Z,10.8
2023-01-05T13:54:25.631Z,10.8
2023-01-05T13:55:26.412Z,10.8
2023-01-05T13:56:14.824Z,10.8
2023-01-05T13:57:10.390Z,10.8
2023-01-05T13:58:19.781Z,10.8
2023-01-05T13:59:15.479Z,10.8
2023-01-05T14:00:23.641Z,10.8
2023-01-05T14:01:10.676Z,10.8
2023-01-05T14:02:25.279Z,10.8
2023-01-05T14:03:10.815Z,10.8
2023-01-05T14:04:24.927Z,10.8
2023-01-05T14:05:10.807Z,10.8
2023-01-05T14:06:26.057Z,10.8
2023-01-05T14:07:10.927Z,10.8
2023-01-05T14:08:23.854Z,10.8
2023-01-05T14:09:33.896Z,10.8
2023-01-05T14:10:24.481Z,10.8
2023-01-05T14:11:11.088Z,10.8
2023-01-05T14:12:53.444Z,10.8
2023-01-05T14:13:11.253Z,10.7
2023-01-05T14:14:25.997Z,10.7
2023-01-05T14:15:25.157Z,10.6
2023-01-05T14:16:24.300Z,10.6
2023-01-05T14:17:11.455Z,10.7
2023-01-05T14:18:52.128Z,10.8
2023-01-05T14:19:11.690Z,10.8
2023-01-05T14:20:23.848Z,10.7
2023-01-05T14:21:32.074Z,10.6
2023-01-05T14:22:16.440Z,10.7
2023-01-05T14:23:11.765Z,10.7
2023-01-05T14:24:52.110Z,10.7
2023-01-05T14:25:12.064Z,10.6
2023-01-05T14:26:16.136Z,10.5
2023-01-05T14:27:32.539Z,10.6
2023-01-05T14:28:20.207Z,10.6
2023-01-05T14:29:12.107Z,10.6
2023-01-05T14:30:37.895Z,10.6
2023-01-05T14:31:12.235Z,10.6
2023-01-05T14:32:26.542Z,10.6
2023-01-05T14:33:35.101Z,10.6
2023-01-05T14:34:26.503Z,10.6
2023-01-05T14:35:12.356Z,10.6
2023-01-05T14:36:53.426Z,10.5
2023-01-05T14:37:12.549Z,10.5
2023-01-05T14:38:30.774Z,10.5
2023-01-05T14:39:29.223Z,10.5
2023-01-05T14:40:24.428Z,10.4
2023-01-05T14:41:12.989Z,10.5
2023-01-05T14:42:54.758Z,10.5
2023-01-05T14:45:27.802Z,10.5
2023-01-05T14:46:13.177Z,10.5
2023-01-05T14:47:13.180Z,10.5
2023-01-05T14:48:13.204Z,10.4
2023-01-05T14:49:13.281Z,10.4
2023-01-05T14:50:13.274Z,10.5
2023-01-05T14:51:13.367Z,10.5
2023-01-05T14:52:13.427Z,10.6
2023-01-05T14:53:13.391Z,10.5
2023-01-05T14:54:13.435Z,10.5
2023-01-05T14:55:39.104Z,10.5
2023-01-05T14:56:13.744Z,10.5
2023-01-05T14:57:13.552Z,10.5
2023-01-05T14:58:13.670Z,10.5
2023-01-05T14:59:13.679Z,10.5
2023-01-05T15:00:14.161Z,10.5
2023-01-05T15:03:13.909Z,10.6
2023-01-05T15:04:13.935Z,10.6
2023-01-05T15:05:14.003Z,10.6
2023-01-05T15:06:14.973Z,10.6
2023-01-05T15:07:14.159Z,10.5
2023-01-05T15:08:14.202Z,10.5
2023-01-05T15:09:14.234Z,10.6
2023-01-05T15:10:14.357Z,10.5
2023-01-05T15:11:14.394Z,10.5
2023-01-05T15:12:14.510Z,10.5
2023-01-05T15:13:14.551Z,10.5
2023-01-05T15:14:14.535Z,10.5
2023-01-05T15:15:14.563Z,10.5
2023-01-05T15:16:14.625Z,10.5
2023-01-05T15:17:14.659Z,10.4
2023-01-05T15:18:14.834Z,10.5
2023-01-05T15:19:14.833Z,10.4
2023-01-05T15:20:15.163Z,10.4
2023-01-05T15:21:14.909Z,10.3
2023-01-05T15:22:30.539Z,10.3
2023-01-05T15:23:15.025Z,10.4
2023-01-05T15:24:15.061Z,10.4
2023-01-05T15:25:18.002Z,10.4
2023-01-05T15:26:15.205Z,10.3
2023-01-05T15:27:15.214Z,10.3
2023-01-05T15:28:15.461Z,10.3
2023-01-05T15:29:15.441Z,10.3
2023-01-05T15:30:15.408Z,10.3
2023-01-05T15:31:15.456Z,10.3
2023-01-05T15:32:15.548Z,10.3
2023-01-05T15:33:15.583Z,10.3
2023-01-05T15:34:15.645Z,10.3
2023-01-05T15:35:20.942Z,10.4
2023-01-05T15:36:16.168Z,10.3
2023-01-05T15:38:15.955Z,10.3
2023-01-05T15:39:16.110Z,10.3
2023-01-05T15:40:16.050Z,10.2
2023-01-05T15:41:16.541Z,10.3
2023-01-05T15:42:16.331Z,10.3
2023-01-05T15:43:16.215Z,10.2
2023-01-05T15:44:16.291Z,10.2
2023-01-05T15:45:19.479Z,10.3
2023-01-05T15:46:34.696Z,10.3
2023-01-05T15:47:16.351Z,10.3
2023-01-05T15:48:16.420Z,10.2
2023-01-05T15:49:16.495Z,10.2
2023-01-05T15:50:16.567Z,10.2
2023-01-05T15:51:17.223Z,10.1
2023-01-05T15:52:16.878Z,10.2
2023-01-05T15:53:17.179Z,10.2
2023-01-05T15:54:16.760Z,10.1
2023-01-05T15:55:19.039Z,10.1
2023-01-05T15:56:16.897Z,10.1
2023-01-05T15:57:18.274Z,10.1
2023-01-05T15:58:17.035Z,10.1
2023-01-05T15:59:17.820Z,10.1
2023-01-05T16:00:17.458Z,10.1
2023-01-05T16:01:17.550Z,10.2
2023-01-05T16:02:18.673Z,10.1
2023-01-05T16:11:47.118Z,10.1
2023-01-05T16:12:50.376Z,10.1
2023-01-05T16:13:47.215Z,10.1
2023-01-05T16:14:47.384Z,10.1
2023-01-05T16:15:47.530Z,10.1
2023-01-05T16:16:52.807Z,10
2023-01-05T16:17:50.118Z,10.1
2023-01-05T16:18:47.351Z,10.1
2023-01-05T16:19:47.441Z,10.1
2023-01-05T16:20:47.701Z,10.1
2023-01-05T16:21:47.567Z,10.2
2023-01-05T16:24:47.889Z,10.2
2023-01-05T16:25:47.868Z,10.1
2023-01-05T16:26:48.125Z,10.1
2023-01-05T16:28:03.707Z,10.1
2023-01-05T16:28:48.729Z,10
2023-01-05T16:29:48.522Z,10
2023-01-05T16:30:48.810Z,10
2023-01-05T16:31:48.437Z,10.1
2023-01-05T16:32:48.452Z,9.9
2023-01-05T16:33:57.553Z,9.8
2023-01-05T16:34:57.567Z,9.9
2023-01-05T16:35:48.719Z,9.9
2023-01-05T16:36:48.786Z,9.9
2023-01-05T16:37:48.847Z,9.9
2023-01-05T16:38:48.905Z,9.7
2023-01-05T16:39:49.920Z,9.7
2023-01-05T16:40:49.314Z,9.6
2023-01-05T16:41:49.232Z,9.6
2023-01-05T16:42:49.284Z,9.5
2023-01-05T16:43:49.428Z,9.4
2023-01-05T16:44:49.448Z,9.4
2023-01-05T16:45:51.719Z,9.5
2023-01-05T16:46:49.640Z,9.5
2023-01-05T16:47:49.835Z,9.5
2023-01-05T16:48:56.750Z,9.5
2023-01-05T16:49:57.892Z,9.4
2023-01-05T16:50:49.965Z,9.4
2023-01-05T16:52:07.963Z,9.4
2023-01-05T16:52:50.129Z,9.4
2023-01-05T16:53:50.187Z,9.4
2023-01-05T16:55:01.552Z,9.4
2023-01-05T16:55:51.289Z,9.3
2023-01-05T16:56:50.619Z,9.4
2023-01-05T16:57:59.100Z,9.4
2023-01-05T16:58:50.682Z,9.3
2023-01-05T16:59:55.878Z,9.3
2023-01-05T17:00:59.360Z,9.4
2023-01-05T17:01:50.800Z,9.5
2023-01-05T17:02:51.008Z,9.3
2023-01-05T17:03:56.027Z,9.3
2023-01-05T17:04:50.934Z,9.3
2023-01-05T17:05:52.435Z,9.3
2023-01-05T17:07:02.741Z,9.3
2023-01-05T17:07:51.132Z,9.3
2023-01-05T17:08:51.226Z,9.2
2023-01-05T17:09:59.908Z,9.2
2023-01-05T17:10:51.362Z,9.1
2023-01-05T17:11:57.986Z,9.1
2023-01-05T17:13:00.329Z,9.2
2023-01-05T17:13:58.123Z,9.2
2023-01-05T17:14:58.182Z,9.2
2023-01-05T17:15:59.477Z,9.1
2023-01-05T17:16:59.361Z,9.2
2023-01-05T17:17:58.362Z,9.2
2023-01-05T17:19:00.608Z,9.2
2023-01-05T17:19:58.654Z,9.2
2023-01-05T17:20:58.613Z,9.2
2023-01-05T17:22:10.411Z,9.2
2023-01-05T17:22:58.732Z,9.1
2023-01-05T17:24:11.305Z,9.1
2023-01-05T17:26:08.897Z,9.1
2023-01-05T17:26:58.972Z,9.2
2023-01-05T17:27:59.577Z,9.2
2023-01-05T17:28:59.123Z,9.1
2023-01-05T17:29:59.226Z,9.2
2023-01-05T17:31:01.681Z,9.2
2023-01-05T17:31:59.336Z,9.2
2023-01-05T17:32:59.408Z,9.1
2023-01-05T17:34:03.816Z,9.2
2023-01-05T17:34:59.697Z,9.2
2023-01-05T17:35:59.662Z,9.1
2023-01-05T17:37:01.467Z,9.1
2023-01-05T17:37:59.789Z,9
2023-01-05T17:38:59.771Z,9
2023-01-05T17:40:00.482Z,9.1
2023-01-05T17:40:59.886Z,9.1
2023-01-05T17:41:59.969Z,9.1
2023-01-05T17:43:00.001Z,9.1
2023-01-05T17:44:00.022Z,9
2023-01-05T17:45:00.042Z,8.9
2023-01-05T17:46:08.718Z,8.9
2023-01-05T17:47:00.172Z,9
2023-01-05T17:48:00.264Z,9
2023-01-05T17:49:00.308Z,9
2023-01-05T17:50:00.409Z,8.9
2023-01-05T17:51:00.516Z,8.9
2023-01-05T17:53:00.648Z,9
2023-01-05T17:54:00.710Z,9
2023-01-05T17:55:06.425Z,9.1
2023-01-05T17:57:00.998Z,9
2023-01-05T17:58:04.565Z,9
2023-01-05T17:59:01.102Z,9
2023-01-05T18:00:01.204Z,8.9
2023-01-05T18:01:06.164Z,9
2023-01-05T18:02:01.376Z,8.9
2023-01-05T18:03:01.444Z,8.9
2023-01-05T18:04:02.698Z,8.8
2023-01-05T18:05:01.615Z,8.9
2023-01-05T18:06:01.707Z,8.9
2023-01-05T18:07:01.742Z,8.9
2023-01-05T18:08:02.036Z,8.9
2023-01-05T18:09:01.971Z,8.8
2023-01-05T18:10:02.044Z,8.9
2023-01-05T18:11:02.118Z,9
2023-01-05T18:12:02.192Z,8.9
2023-01-05T18:13:04.094Z,8.9
2023-01-05T18:14:02.282Z,8.9
2023-01-05T18:15:02.371Z,8.8
2023-01-05T18:16:27.175Z,8.8
2023-01-05T18:17:02.561Z,8.8
2023-01-05T18:18:02.532Z,8.8
2023-01-05T18:19:05.839Z,8.8
2023-01-05T18:20:02.666Z,8.8
2023-01-05T18:21:02.727Z,8.8
2023-01-05T18:22:04.676Z,8.8
2023-01-05T18:23:02.839Z,8.8
2023-01-05T18:24:03.015Z,8.8
2023-01-05T18:26:03.125Z,8.7
2023-01-05T18:27:03.341Z,8.7
2023-01-05T18:28:03.621Z,8.7
2023-01-05T18:29:03.196Z,8.8
2023-01-05T18:30:03.354Z,8.8
2023-01-05T18:31:05.206Z,8.8
2023-01-05T18:32:03.391Z,8.7
2023-01-05T18:33:03.485Z,8.7
2023-01-05T18:34:06.018Z,8.8
2023-01-05T18:35:05.632Z,8.8
2023-01-05T18:36:03.704Z,8.8
2023-01-05T18:37:10.965Z,8.8
2023-01-05T18:38:03.878Z,8.7
2023-01-05T18:39:03.908Z,8.7
2023-01-05T18:40:05.037Z,8.7
2023-01-05T18:41:04.027Z,8.7
2023-01-05T18:42:04.137Z,8.7
2023-01-05T18:43:04.355Z,8.6
2023-01-05T18:44:04.201Z,8.6
2023-01-05T18:45:08.842Z,8.6
2023-01-05T18:46:17.263Z,8.7
2023-01-05T18:47:04.439Z,8.7
2023-01-05T18:48:04.532Z,8.8
2023-01-05T18:49:12.365Z,8.7
2023-01-05T18:50:04.629Z,8.7
2023-01-05T18:51:04.754Z,8.7
2023-01-05T18:52:07.790Z,8.8
2023-01-05T18:53:04.883Z,8.8
2023-01-05T18:54:04.910Z,8.8
2023-01-05T18:55:10.318Z,8.8
2023-01-05T18:56:05.080Z,8.8
2023-01-05T18:57:05.177Z,8.8
2023-01-05T18:58:09.378Z,8.8
2023-01-05T18:59:05.355Z,8.9
2023-01-05T19:00:05.418Z,8.8
2023-01-05T19:01:13.201Z,8.8
2023-01-05T19:02:05.595Z,8.8
2023-01-05T19:03:05.668Z,8.8
2023-01-05T19:04:14.189Z,8.7
2023-01-05T19:05:05.781Z,8.8
2023-01-05T19:06:05.866Z,8.7
2023-01-05T19:07:05.927Z,8.7
2023-01-05T19:08:05.969Z,8.8
2023-01-05T19:09:06.097Z,8.8
2023-01-05T19:10:06.169Z,8.7
2023-01-05T19:11:07.171Z,8.8
2023-01-05T19:12:06.284Z,8.8
2023-01-05T19:13:06.384Z,8.8
2023-01-05T19:14:06.471Z,8.8
2023-01-05T19:15:06.699Z,8.8
2023-01-05T19:16:11.586Z,8.8
2023-01-05T19:17:06.709Z,8.8
2023-01-05T19:18:06.770Z,8.9
2023-01-05T19:19:15.152Z,8.9
2023-01-05T19:20:06.943Z,8.8
2023-01-05T19:21:07.000Z,8.8
2023-01-05T19:22:13.251Z,8.9
2023-01-05T19:23:08.017Z,8.9
2023-01-05T19:24:11.148Z,8.9
2023-01-05T19:25:17.307Z,8.9
2023-01-05T19:26:07.446Z,8.9
2023-01-05T19:27:07.492Z,9
2023-01-05T19:28:19.006Z,9
2023-01-05T19:29:12.662Z,8.9
2023-01-05T19:30:16.361Z,9
2023-01-05T19:31:23.606Z,9
2023-01-05T19:32:21.389Z,8.9
2023-01-05T19:33:08.111Z,8.9
2023-01-05T19:34:21.420Z,9
2023-01-05T19:35:08.305Z,9
2023-01-05T19:36:07.981Z,9
2023-01-05T19:37:35.037Z,9
2023-01-05T19:38:08.203Z,9
2023-01-05T19:39:08.272Z,9
2023-01-05T19:40:16.766Z,9
2023-01-05T19:41:10.415Z,9
2023-01-05T19:42:19.213Z,8.9
2023-01-05T19:43:39.319Z,8.9
2023-01-05T19:44:11.987Z,8.9
2023-01-05T19:45:08.807Z,8.9
2023-01-05T19:46:19.229Z,9
2023-01-05T19:47:08.624Z,8.9
2023-01-05T19:48:12.799Z,8.9
2023-01-05T19:49:19.277Z,9
2023-01-05T19:50:09.858Z,9
2023-01-05T19:51:09.107Z,9
2023-01-05T19:52:17.641Z,8.9
2023-01-05T19:53:09.001Z,8.9
2023-01-05T19:54:09.367Z,9
2023-01-05T19:55:27.572Z,9
2023-01-05T19:56:09.616Z,9
2023-01-05T19:57:09.519Z,8.9
2023-01-05T19:58:15.180Z,9
2023-01-05T19:59:09.443Z,9
2023-01-05T20:00:09.532Z,9
2023-01-05T20:01:31.725Z,9
2023-01-05T20:02:09.661Z,9
2023-01-05T20:03:09.742Z,9
2023-01-05T20:04:23.366Z,9.1
2023-01-05T20:05:09.940Z,9
2023-01-05T20:06:09.967Z,9
2023-01-05T20:07:25.033Z,9
2023-01-05T20:08:10.147Z,9
2023-01-05T20:09:10.164Z,8.9
2023-01-05T20:10:36.396Z,8.9
2023-01-05T20:11:11.915Z,9
2023-01-05T20:12:14.678Z,8.9
2023-01-05T20:13:11.430Z,9
2023-01-05T20:14:18.043Z,9
2023-01-05T20:15:11.668Z,9
2023-01-05T20:17:32.437Z,8.9
2023-01-05T20:17:32.771Z,9
2023-01-05T20:18:31.421Z,9
2023-01-05T20:19:20.860Z,9.1
2023-01-05T20:21:28.584Z,9.1
2023-01-05T20:22:11.208Z,9.1
2023-01-05T20:23:11.625Z,9.1
2023-01-05T20:24:16.501Z,9.1
2023-01-05T20:25:11.411Z,9.1
2023-01-05T20:26:11.361Z,9.1
2023-01-05T20:27:11.701Z,9.1
2023-01-05T20:28:36.842Z,9.1
2023-01-05T20:29:11.615Z,9.1
2023-01-05T20:30:11.874Z,9.1
2023-01-05T20:31:11.776Z,9.1
2023-01-05T20:32:11.810Z,9.1
2023-01-05T20:33:11.870Z,9.1
2023-01-05T20:34:27.046Z,9.1
2023-01-05T20:35:12.270Z,9.1
2023-01-05T20:36:12.454Z,9.1
2023-01-05T20:37:12.273Z,9.1
2023-01-05T20:38:12.441Z,9
2023-01-05T20:39:12.327Z,9
2023-01-05T20:40:27.097Z,9.1
2023-01-05T20:41:12.366Z,9.1
2023-01-05T20:42:52.823Z,9.1
2023-01-05T20:45:17.371Z,9.1
2023-01-05T20:46:25.428Z,9.1
2023-01-05T20:47:17.352Z,9.1
2023-01-05T20:48:21.993Z,9.1
2023-01-05T20:49:17.971Z,9.1
2023-01-05T20:50:22.739Z,9.1
2023-01-05T20:51:17.609Z,9.1
2023-01-05T20:52:36.137Z,9.1
2023-01-05T20:53:17.863Z,9.1
2023-01-05T20:54:38.400Z,9.1
2023-01-05T20:55:18.967Z,9.1
2023-01-05T20:56:35.544Z,9.1
2023-01-05T20:57:18.002Z,9.1
2023-01-05T20:58:37.102Z,9.1
2023-01-05T20:59:18.123Z,9.1
2023-01-05T21:01:09.975Z,9.1
2023-01-05T21:01:18.340Z,9.1
2023-01-05T21:02:36.274Z,9.1
2023-01-05T21:03:18.400Z,9.2
2023-01-05T21:04:35.756Z,9.2
2023-01-05T21:05:18.573Z,9.1
2023-01-05T21:06:38.808Z,9.1
2023-01-05T21:07:18.666Z,9.1
2023-01-05T21:08:38.436Z,9.1
2023-01-05T21:09:18.813Z,9.1
2023-01-05T21:10:36.123Z,9.2
2023-01-05T21:11:18.962Z,9.2
2023-01-05T21:12:35.798Z,9.3
2023-01-05T21:13:30.826Z,9.3
2023-01-05T21:14:35.918Z,9.2
2023-01-05T21:15:19.232Z,9.3
2023-01-05T21:16:39.412Z,9.2
2023-01-05T21:17:32.100Z,9.2
2023-01-05T21:18:39.540Z,9.2
2023-01-05T21:19:32.232Z,9.2
2023-01-05T21:20:37.342Z,9.3
2023-01-05T21:21:50.716Z,9.2
2023-01-05T21:22:48.714Z,9.3
2023-01-05T21:23:32.586Z,9.3
2023-01-05T21:24:49.947Z,9.3
2023-01-05T21:26:05.199Z,9.3
2023-01-05T21:26:49.615Z,9.2
2023-01-05T21:27:32.864Z,9.2
2023-01-05T21:28:50.474Z,9.2
2023-01-05T21:29:32.979Z,9.2
2023-01-05T21:30:52.621Z,9.3
2023-01-05T21:31:45.597Z,9.3
2023-01-05T21:32:51.142Z,9.3
2023-01-05T21:33:33.266Z,9.3
2023-01-05T21:34:52.052Z,9.3
2023-01-05T21:35:33.430Z,9.3
2023-01-05T21:36:50.065Z,9.3
2023-01-05T21:37:33.728Z,9.3
2023-01-05T21:39:00.422Z,9.3
2023-01-05T21:39:33.660Z,9.4
2023-01-05T21:40:53.877Z,9.4
2023-01-05T21:41:42.363Z,9.4
2023-01-05T21:42:55.479Z,9.4
2023-01-05T21:43:34.138Z,9.4
2023-01-05T21:44:56.539Z,9.4
2023-01-05T21:45:34.835Z,9.4
2023-01-05T21:46:38.715Z,9.4
2023-01-05T21:47:34.208Z,9.4
2023-01-05T21:48:34.108Z,9.4
2023-01-05T21:49:34.259Z,9.4
2023-01-05T21:50:34.201Z,9.4
2023-01-05T21:51:41.398Z,9.4
2023-01-05T21:52:34.326Z,9.4
2023-01-05T21:53:34.329Z,9.4
2023-01-05T21:54:34.455Z,9.4
2023-01-05T22:00:01.615Z,9.5
2023-01-05T22:01:03.531Z,9.6
2023-01-05T22:01:34.756Z,9.6
2023-01-05T22:02:34.867Z,9.5
2023-01-05T22:03:35.091Z,9.5
2023-01-05T22:04:35.001Z,9.5
2023-01-05T22:05:35.040Z,9.5
2023-01-05T22:06:35.056Z,9.5
2023-01-05T22:07:35.129Z,9.5
2023-01-05T22:08:35.218Z,9.5
2023-01-05T22:09:35.280Z,9.4
2023-01-05T22:10:35.322Z,9.4
2023-01-05T22:11:35.396Z,9.5
2023-01-05T22:12:35.432Z,9.5
2023-01-05T22:13:35.471Z,9.5
2023-01-05T22:14:35.575Z,9.5
2023-01-05T22:15:35.616Z,9.4
2023-01-05T22:16:35.716Z,9.4
2023-01-05T22:17:35.778Z,9.4
2023-01-05T22:18:35.792Z,9.4
2023-01-05T22:19:35.984Z,9.4
2023-01-05T22:20:35.937Z,9.4
2023-01-05T22:21:36.019Z,9.4
2023-01-05T22:22:36.061Z,9.4
2023-01-05T22:23:36.176Z,9.4
2023-01-05T22:24:36.195Z,9.4
2023-01-05T22:25:36.824Z,9.4
2023-01-05T22:26:36.358Z,9.4
2023-01-05T22:27:36.404Z,9.4
2023-01-05T22:28:36.508Z,9.4
2023-01-05T22:29:36.562Z,9.5
2023-01-05T22:30:36.625Z,9.5
2023-01-05T22:31:36.746Z,9.5
2023-01-05T22:32:36.804Z,9.6
2023-01-05T22:33:36.874Z,9.5
2023-01-05T22:34:36.996Z,9.5
2023-01-05T22:35:37.146Z,9.5
2023-01-05T22:36:37.114Z,9.5
2023-01-05T22:37:37.178Z,9.5
2023-01-05T22:38:37.282Z,9.5
2023-01-05T22:39:37.339Z,9.5
2023-01-05T22:40:37.518Z,9.5
2023-01-05T22:41:37.512Z,9.5
2023-01-05T22:42:37.550Z,9.5
2023-01-05T22:43:37.610Z,9.4
2023-01-05T22:44:37.666Z,9.4
2023-01-05T22:45:37.771Z,9.4
2023-01-05T22:46:37.797Z,9.5
2023-01-05T22:47:37.903Z,9.4
2023-01-05T22:48:37.967Z,9.4
2023-01-05T22:49:38.037Z,9.4
2023-01-05T22:50:38.161Z,9.5
2023-01-05T22:51:38.307Z,9.5
2023-01-05T22:52:38.272Z,9.5
2023-01-05T22:53:38.366Z,9.5
2023-01-05T22:54:38.414Z,9.5
2023-01-05T22:55:38.520Z,9.4
2023-01-05T22:56:38.561Z,9.4
2023-01-05T22:57:38.607Z,9.4
2023-01-05T22:58:38.714Z,9.4
2023-01-05T22:59:38.735Z,9.4
2023-01-05T23:00:38.827Z,9.5
2023-01-05T23:01:38.842Z,9.5
2023-01-05T23:02:38.999Z,9.5
2023-01-05T23:03:38.950Z,9.5
2023-01-05T23:04:39.002Z,9.5
2023-01-05T23:05:39.053Z,9.5
2023-01-05T23:06:39.124Z,9.5
2023-01-05T23:07:39.303Z,9.5
2023-01-05T23:08:39.258Z,9.5
2023-01-05T23:09:39.305Z,9.5
2023-01-05T23:10:39.369Z,9.5
2023-01-05T23:11:39.467Z,9.5
2023-01-05T23:12:39.489Z,9.5
2023-01-05T23:13:39.519Z,9.6
2023-01-05T23:14:39.611Z,9.5
2023-01-05T23:15:39.707Z,9.5
2023-01-05T23:17:20.088Z,9.5
2023-01-05T23:18:20.103Z,9.6
2023-01-05T23:19:20.185Z,9.6
2023-01-05T23:20:20.252Z,9.5
2023-01-05T23:21:20.307Z,9.6
2023-01-05T23:22:20.378Z,9.6
2023-01-05T23:23:20.648Z,9.6
2023-01-05T23:24:20.555Z,9.7
2023-01-05T23:25:20.620Z,9.6
2023-01-05T23:26:20.693Z,9.6
2023-01-05T23:27:20.773Z,9.6
2023-01-05T23:28:20.894Z,9.6
2023-01-05T23:29:20.936Z,9.6
2023-01-05T23:30:20.988Z,9.6
2023-01-05T23:31:21.032Z,9.6
2023-01-05T23:32:21.300Z,9.6
2023-01-05T23:33:21.148Z,9.6
2023-01-05T23:34:21.238Z,9.6
2023-01-05T23:35:26.349Z,9.6
2023-01-05T23:36:21.372Z,9.6
2023-01-05T23:37:21.452Z,9.6
2023-01-05T23:38:21.727Z,9.6
2023-01-05T23:39:21.728Z,9.6
2023-01-05T23:40:21.752Z,9.6
2023-01-05T23:41:21.768Z,9.6
2023-01-05T23:42:22.054Z,9.6
2023-01-05T23:43:21.965Z,9.7
2023-01-05T23:44:21.988Z,9.7
2023-01-05T23:45:22.085Z,9.7
2023-01-05T23:46:22.253Z,9.6
2023-01-05T23:47:22.258Z,9.6
2023-01-05T23:48:22.331Z,9.7
2023-01-05T23:49:22.390Z,9.7
2023-01-05T23:50:22.486Z,9.6
2023-01-05T23:51:22.605Z,9.6
2023-01-05T23:52:22.634Z,9.7
2023-01-05T23:53:22.771Z,9.7
2023-01-05T23:54:22.787Z,9.7
2023-01-05T23:55:22.999Z,9.7
2023-01-05T23:56:23.016Z,9.7
2023-01-05T23:57:23.059Z,9.7
2023-01-05T23:58:23.133Z,9.7
2023-01-05T23:59:23.209Z,9.7
